Time;durP1;ratioP1;P1;durP2;ratioP2;P2;SDS_P1;SDS_P2;PMS_P1;PMS_P2;Temp;Humidity;BMP_temperature;BMP_pressure;BME280_temperature;BME280_humidity;BME280_pressure;Samples;Min_cycle;Max_cycle;Signal;HPM_P1;HPM_P2
2022/01/20 00:03:31;;;;;;;14.10;12.67;;;;;;;-3.90;67.32;93390.53;5013981;28;20184;-81
2022/01/20 00:27:18;;;;;;;17.50;13.47;;;;;;;-4.02;68.98;93374.06;5013365;28;20238;-81
2022/01/20 00:35:23;;;;;;;17.60;13.90;;;;;;;-3.96;69.32;93356.34;5003323;28;20239;-81
2022/01/20 00:37:49;;;;;;;16.33;14.43;;;;;;;-4.00;69.18;93356.88;5015673;28;20221;-81
2022/01/20 00:40:16;;;;;;;14.07;13.07;;;;;;;-4.41;70.28;93332.66;5013444;28;20183;-81
2022/01/20 00:42:42;;;;;;;17.07;14.93;;;;;;;-4.05;69.02;93361.69;5013447;28;20215;-81
2022/01/20 00:45:08;;;;;;;15.80;13.87;;;;;;;-4.46;69.84;93323.00;5012388;28;20202;-79
2022/01/20 00:47:34;;;;;;;13.47;12.20;;;;;;;-4.34;69.71;93333.59;5012585;28;20246;-81
2022/01/20 00:50:00;;;;;;;17.33;13.30;;;;;;;-4.27;69.94;93344.66;5013505;28;20246;-81
2022/01/20 00:52:25;;;;;;;16.37;13.47;;;;;;;-4.79;70.14;93280.91;5029160;28;20203;-81
2022/01/20 00:54:50;;;;;;;15.57;14.00;;;;;;;-4.03;68.66;93337.59;5013187;28;20247;-80
2022/01/20 00:57:16;;;;;;;17.33;13.47;;;;;;;-4.03;68.88;93341.91;5013746;28;20231;-80
2022/01/20 00:59:42;;;;;;;14.80;13.43;;;;;;;-4.22;69.22;93324.56;5013492;28;20247;-80
2022/01/20 01:02:11;;;;;;;15.20;13.70;;;;;;;-3.98;68.92;93347.25;5013461;28;20250;-82
2022/01/20 01:04:38;;;;;;;15.20;13.60;;;;;;;-4.36;70.92;93325.31;5012313;28;20203;-80
2022/01/20 01:09:33;;;;;;;14.40;13.20;;;;;;;-4.09;68.71;93340.03;5012736;28;20199;-81
2022/01/20 01:12:02;;;;;;;13.83;12.63;;;;;;;-4.06;67.91;93340.47;5011721;28;20223;-80
2022/01/20 01:14:31;;;;;;;13.97;12.70;;;;;;;-4.33;68.24;93332.59;5013203;28;20295;-80
2022/01/20 01:24:38;;;;;;;12.13;11.13;;;;;;;-4.17;67.59;93324.84;5015638;28;20275;-81
2022/01/20 01:27:04;;;;;;;12.30;11.30;;;;;;;-4.14;66.56;93321.94;5023631;28;20238;-81
2022/01/20 01:32:18;;;;;;;13.73;12.53;;;;;;;-4.47;67.51;93298.50;5012066;28;20254;-81
2022/01/20 01:34:49;;;;;;;13.93;12.37;;;;;;;-4.37;68.50;93318.63;5012962;28;20219;-80
2022/01/20 01:38:24;;;;;;;14.47;13.13;;;;;;;-4.21;68.18;93313.38;5011663;28;20226;-82
2022/01/20 01:40:03;;;;;;;13.70;11.80;;;;;;;-4.28;68.20;93292.13;5012985;28;20202;-81
2022/01/20 01:42:39;;;;;;;13.03;11.63;;;;;;;-4.20;69.32;93304.78;5011696;28;20285;-81
2022/01/20 01:45:07;;;;;;;13.70;12.43;;;;;;;-4.22;69.19;93304.16;5014311;28;20194;-81
2022/01/20 01:47:33;;;;;;;13.60;12.07;;;;;;;-4.18;68.07;93306.19;5010860;28;20219;-82
2022/01/20 01:49:58;;;;;;;17.73;12.63;;;;;;;-4.56;68.73;93248.56;5012164;28;20214;-81
2022/01/20 01:52:23;;;;;;;14.63;13.07;;;;;;;-4.29;68.40;93290.50;5026090;28;20278;-81
2022/01/20 01:54:49;;;;;;;14.97;13.00;;;;;;;-4.31;68.57;93300.09;5012821;28;20203;-80
2022/01/20 01:57:14;;;;;;;15.77;14.03;;;;;;;-4.38;69.21;93281.38;5011721;28;20227;-81
2022/01/20 01:59:40;;;;;;;15.77;14.07;;;;;;;-4.20;68.33;93292.06;5011013;28;20211;-81
2022/01/20 02:02:07;;;;;;;12.77;11.77;;;;;;;-4.51;68.17;93263.34;5011249;28;20246;-81
2022/01/20 02:04:33;;;;;;;12.23;11.40;;;;;;;-4.39;69.04;93283.13;5012137;28;20180;-81
2022/01/20 02:07:27;;;;;;;13.47;12.40;;;;;;;-4.54;68.64;93261.91;5013071;28;20246;-79
2022/01/20 02:20:40;;;;;;;16.03;13.37;;;;;;;-4.54;69.48;93284.84;5011598;28;20238;-80
2022/01/20 02:23:06;;;;;;;20.07;14.40;;;;;;;-4.52;68.98;93249.00;5027267;28;20183;-80
2022/01/20 02:25:35;;;;;;;20.40;15.13;;;;;;;-4.40;69.86;93268.00;5010715;28;20633;-80
2022/01/20 02:28:05;;;;;;;17.03;13.60;;;;;;;-4.35;68.13;93246.16;5010758;28;20211;-79
2022/01/20 02:30:31;;;;;;;15.17;13.53;;;;;;;-4.22;68.38;93255.75;5024163;28;20199;-80
2022/01/20 02:32:59;;;;;;;13.93;12.57;;;;;;;-4.51;69.61;93251.38;5011740;28;20187;-77
2022/01/20 02:35:27;;;;;;;13.93;12.50;;;;;;;-4.39;68.68;93255.09;5011142;28;20250;-79
2022/01/20 02:38:16;;;;;;;13.17;12.07;;;;;;;-4.57;68.13;93230.91;5010171;28;20207;-79
2022/01/20 02:46:06;;;;;;;13.93;12.37;;;;;;;-4.51;68.25;93225.13;5009577;28;20225;-79
2022/01/20 02:48:31;;;;;;;17.10;12.77;;;;;;;-4.31;68.61;93239.72;5010284;28;20186;-79
2022/01/20 02:50:57;;;;;;;13.77;12.37;;;;;;;-4.44;67.83;93215.81;5010438;28;20227;-79
2022/01/20 02:53:23;;;;;;;14.83;13.43;;;;;;;-4.38;68.37;93241.41;5012441;28;20214;-79
2022/01/20 02:55:48;;;;;;;13.90;12.40;;;;;;;-4.48;68.81;93242.63;5010114;28;20223;-79
2022/01/20 02:58:14;;;;;;;16.90;14.03;;;;;;;-4.55;69.67;93232.31;5011545;28;20227;-80
2022/01/20 03:00:39;;;;;;;19.77;13.70;;;;;;;-4.63;70.50;93242.59;5010478;28;20219;-79
2022/01/20 03:03:05;;;;;;;18.10;12.57;;;;;;;-4.51;70.10;93225.13;5010794;28;20218;-80
2022/01/20 03:05:31;;;;;;;14.63;12.83;;;;;;;-4.42;69.09;93221.53;5009981;28;20195;-80
2022/01/20 03:07:57;;;;;;;15.67;13.03;;;;;;;-4.89;70.17;93203.97;5010512;28;20230;-80
2022/01/20 03:10:23;;;;;;;14.83;13.30;;;;;;;-4.72;71.82;93227.53;5012307;28;20202;-79
2022/01/20 03:12:49;;;;;;;19.77;12.73;;;;;;;-4.61;70.69;93230.47;5009466;28;20188;-79
2022/01/20 03:15:14;;;;;;;15.23;13.53;;;;;;;-4.47;70.23;93221.25;5011788;28;20246;-79
2022/01/20 03:17:40;;;;;;;14.83;12.40;;;;;;;-4.58;69.85;93225.03;5009956;28;20234;-80
2022/01/20 03:20:06;;;;;;;15.60;13.37;;;;;;;-4.50;69.77;93216.53;5010725;28;20172;-79
2022/01/20 03:22:31;;;;;;;13.13;11.90;;;;;;;-4.62;69.42;93231.41;5009391;28;20249;-80
2022/01/20 03:24:58;;;;;;;18.03;13.07;;;;;;;-4.81;71.27;93201.38;5011289;28;20246;-79
2022/01/20 03:27:24;;;;;;;14.87;12.63;;;;;;;-4.65;70.97;93221.56;5009834;28;20233;-79
2022/01/20 03:29:50;;;;;;;14.67;13.20;;;;;;;-4.65;71.77;93220.81;5010811;28;20231;-79
2022/01/20 03:32:15;;;;;;;14.33;13.00;;;;;;;-4.65;69.98;93197.88;5009959;28;20283;-80
2022/01/20 03:34:41;;;;;;;17.37;13.00;;;;;;;-4.47;68.52;93218.72;5011611;28;20191;-79
2022/01/20 03:37:06;;;;;;;14.00;12.50;;;;;;;-4.53;69.53;93219.41;5010085;28;20226;-79
2022/01/20 03:39:32;;;;;;;13.77;12.50;;;;;;;-4.58;70.18;93219.13;5010415;28;20214;-79
2022/01/20 03:41:58;;;;;;;14.33;12.93;;;;;;;-4.54;70.18;93228.00;4993548;28;20238;-79
2022/01/20 03:44:24;;;;;;;18.47;12.33;;;;;;;-4.55;70.29;93214.50;5009472;28;20183;-79
2022/01/20 03:46:49;;;;;;;14.57;13.07;;;;;;;-4.48;69.55;93220.47;5010310;28;20306;-79
2022/01/20 03:49:37;;;;;;;13.63;12.43;;;;;;;-4.86;70.35;93180.72;5009678;28;21145;-79
2022/01/20 03:52:04;;;;;;;15.27;13.33;;;;;;;-4.51;68.83;93207.31;5009510;28;20226;-79
2022/01/20 03:54:29;;;;;;;13.40;12.20;;;;;;;-4.67;70.32;93199.81;5009610;28;20179;-79
2022/01/20 03:56:55;;;;;;;15.40;13.27;;;;;;;-4.67;70.21;93187.88;5009976;28;20238;-79
2022/01/20 03:59:21;;;;;;;16.37;13.33;;;;;;;-4.55;68.99;93188.22;5009106;28;20183;-79
2022/01/20 04:01:46;;;;;;;17.43;14.13;;;;;;;-4.79;70.44;93196.09;5009995;28;20234;-79
2022/01/20 04:04:11;;;;;;;15.90;14.10;;;;;;;-4.70;70.96;93192.50;5009754;28;20195;-80
2022/01/20 04:06:37;;;;;;;16.00;14.23;;;;;;;-4.55;69.81;93208.59;5009824;28;20235;-79
2022/01/20 04:09:04;;;;;;;16.63;14.23;;;;;;;-4.77;71.06;93173.78;5010411;28;20188;-79
2022/01/20 04:11:30;;;;;;;20.57;14.40;;;;;;;-4.60;71.09;93203.22;5009612;28;20251;-79
2022/01/20 04:13:57;;;;;;;18.50;14.27;;;;;;;-4.83;71.37;93198.19;5011369;28;20263;-79
2022/01/20 04:16:35;;;;;;;17.90;15.07;;;;;;;-4.94;72.55;93183.34;5010255;28;20234;-79
2022/01/20 04:19:03;;;;;;;16.87;15.27;;;;;;;-4.73;71.59;93198.72;5009485;28;20191;-79
2022/01/20 04:21:30;;;;;;;17.00;13.90;;;;;;;-4.77;70.40;93174.59;5010573;28;20235;-79
2022/01/20 04:23:59;;;;;;;15.73;14.13;;;;;;;-4.59;70.96;93202.28;5012212;28;20766;-79
2022/01/20 04:26:25;;;;;;;20.30;15.30;;;;;;;-4.62;70.66;93195.75;5010971;28;20215;-79
2022/01/20 04:28:56;;;;;;;19.07;14.97;;;;;;;-4.87;72.52;93191.84;5013119;28;20195;-79
2022/01/20 04:31:26;;;;;;;16.30;14.77;;;;;;;-4.76;71.22;93193.22;5011718;28;20230;-80
2022/01/20 04:33:53;;;;;;;14.97;13.00;;;;;;;-5.02;72.21;93166.38;5013035;28;20222;-78
2022/01/20 04:36:19;;;;;;;15.23;13.73;;;;;;;-4.65;70.67;93208.06;5012737;28;20250;-79
2022/01/20 04:38:44;;;;;;;17.77;15.13;;;;;;;-4.96;72.73;93190.34;5012506;28;20215;-80
2022/01/20 04:41:10;;;;;;;16.90;13.63;;;;;;;-5.00;71.84;93166.97;5014064;28;20271;-78
2022/01/20 04:43:36;;;;;;;15.87;14.23;;;;;;;-4.66;70.90;93202.19;5013371;28;20183;-78
2022/01/20 04:46:09;;;;;;;16.50;14.83;;;;;;;-4.76;71.83;93195.75;5012317;28;20232;-79
2022/01/20 04:48:59;;;;;;;19.50;15.17;;;;;;;-4.99;72.46;93183.84;5013070;28;20240;-78
2022/01/20 04:59:28;;;;;;;17.87;14.60;;;;;;;-4.75;70.13;93184.59;5012866;28;20191;-79
2022/01/20 05:01:54;;;;;;;14.17;12.97;;;;;;;-5.01;71.48;93188.31;5011329;28;20302;-77
2022/01/20 05:04:21;;;;;;;14.87;13.47;;;;;;;-5.09;72.27;93190.16;5027156;28;20195;-79
2022/01/20 05:06:48;;;;;;;15.87;13.23;;;;;;;-5.04;70.95;93201.38;5011548;28;20223;-79
2022/01/20 05:09:19;;;;;;;15.50;14.10;;;;;;;-5.11;71.17;93167.41;5012938;28;20282;-78
2022/01/20 05:11:49;;;;;;;14.80;13.27;;;;;;;-5.06;71.02;93174.53;5012591;28;20226;-78
2022/01/20 05:14:14;;;;;;;14.50;12.93;;;;;;;-5.08;71.53;93177.25;5011226;28;20192;-78
2022/01/20 05:16:39;;;;;;;18.40;14.10;;;;;;;-5.06;71.13;93165.13;5012657;28;20217;-78
2022/01/20 05:19:05;;;;;;;23.27;14.47;;;;;;;-5.06;73.02;93177.84;5014358;28;20293;-78
2022/01/20 05:21:30;;;;;;;20.43;14.37;;;;;;;-4.89;71.25;93170.88;5012124;28;20219;-78
2022/01/20 05:23:56;;;;;;;15.03;13.57;;;;;;;-4.93;71.79;93185.69;5013105;28;20179;-78
2022/01/20 05:26:21;;;;;;;16.70;13.70;;;;;;;-4.87;70.88;93173.25;5011100;28;20231;-78
2022/01/20 05:28:47;;;;;;;17.00;14.57;;;;;;;-4.84;70.52;93196.59;5012638;28;20195;-80
2022/01/20 05:31:12;;;;;;;18.07;15.87;;;;;;;-4.80;71.52;93199.59;5012519;28;20223;-75
2022/01/20 05:33:38;;;;;;;21.87;15.43;;;;;;;-5.04;72.42;93187.84;5013174;28;20236;-75
2022/01/20 05:36:03;;;;;;;25.43;15.63;;;;;;;-5.00;70.98;93174.59;5011861;28;20229;-76
2022/01/20 05:38:29;;;;;;;20.37;15.70;;;;;;;-5.11;71.93;93197.94;5011890;28;20186;-77
2022/01/20 05:40:54;;;;;;;22.30;15.97;;;;;;;-4.82;71.30;93193.91;5011944;28;20223;-77
2022/01/20 05:43:20;;;;;;;23.33;16.57;;;;;;;-4.88;71.53;93197.91;5011682;28;20214;-76
2022/01/20 05:45:45;;;;;;;26.33;15.63;;;;;;;-4.75;70.44;93180.31;5013366;28;20804;-77
2022/01/20 05:48:14;;;;;;;24.40;16.70;;;;;;;-4.75;71.16;93171.88;5011716;28;20207;-78
2022/01/20 05:50:40;;;;;;;19.93;16.23;;;;;;;-4.75;71.29;93185.41;5011396;28;20295;-77
2022/01/20 05:53:07;;;;;;;26.87;17.10;;;;;;;-4.78;71.30;93201.03;5012533;28;20234;-77
2022/01/20 05:55:34;;;;;;;20.60;16.83;;;;;;;-4.65;71.69;93205.53;5010572;28;20195;-77
2022/01/20 05:57:59;;;;;;;34.30;20.53;;;;;;;-4.67;71.12;93175.16;5012376;28;20187;-77
2022/01/20 06:00:27;;;;;;;27.63;18.53;;;;;;;-4.74;70.24;93156.41;5011834;28;20182;-77
2022/01/20 06:05:38;;;;;;;30.00;19.50;;;;;;;-4.73;71.53;93178.34;5010944;28;20324;-80
2022/01/20 06:08:04;;;;;;;35.63;21.60;;;;;;;-4.61;70.94;93192.28;5025654;28;20211;-79
2022/01/20 06:10:31;;;;;;;35.87;20.53;;;;;;;-4.81;71.41;93158.09;5011245;28;20187;-77
2022/01/20 06:12:57;;;;;;;50.57;25.03;;;;;;;-4.46;70.60;93174.44;5012973;28;21618;-77
2022/01/20 06:15:23;;;;;;;44.67;24.10;;;;;;;-4.58;71.56;93173.28;4993409;28;20239;-77
2022/01/20 06:17:48;;;;;;;44.47;23.33;;;;;;;-4.46;70.76;93190.53;5012033;28;20183;-78
2022/01/20 06:20:14;;;;;;;44.67;24.73;;;;;;;-4.57;70.55;93185.06;5011076;28;20187;-78
2022/01/20 06:22:40;;;;;;;36.23;22.30;;;;;;;-4.36;70.45;93206.34;5011160;28;20295;-76
2022/01/20 06:25:06;;;;;;;31.57;22.53;;;;;;;-4.28;70.57;93203.69;5010892;28;20176;-79
2022/01/20 06:27:32;;;;;;;27.23;19.90;;;;;;;-4.37;70.76;93207.31;5010171;28;20223;-78
2022/01/20 06:29:58;;;;;;;28.50;20.37;;;;;;;-4.53;71.92;93187.09;5011287;28;20262;-80
2022/01/20 06:32:23;;;;;;;28.00;19.93;;;;;;;-4.39;70.70;93181.19;5010336;28;20246;-82
2022/01/20 06:34:49;;;;;;;26.63;18.23;;;;;;;-4.23;70.78;93200.63;5010902;28;20202;-84
2022/01/20 06:37:14;;;;;;;23.33;18.27;;;;;;;-4.19;70.33;93206.97;5011122;28;20227;-82
2022/01/20 06:39:39;;;;;;;24.93;19.43;;;;;;;-4.29;70.33;93169.00;5011927;28;20190;-77
2022/01/20 06:42:06;;;;;;;29.60;18.60;;;;;;;-4.24;70.57;93188.84;5010665;28;20230;-80
2022/01/20 06:44:32;;;;;;;27.73;18.00;;;;;;;-4.27;71.36;93201.94;5010386;28;20187;-88
2022/01/20 06:46:57;;;;;;;34.10;18.23;;;;;;;-4.37;70.61;93158.13;5010708;28;20230;-79
2022/01/20 06:49:23;;;;;;;32.17;18.70;;;;;;;-4.06;70.73;93195.19;5008188;28;20172;-85
2022/01/20 06:51:48;;;;;;;25.37;18.73;;;;;;;-3.85;69.93;93207.22;5010540;28;20223;-83
2022/01/20 06:54:15;;;;;;;31.50;19.00;;;;;;;-4.26;69.49;93101.59;5010647;28;20219;-82
2022/01/20 06:56:43;;;;;;;30.43;20.00;;;;;;;-3.56;69.04;93192.66;5011720;28;20237;-83
2022/01/20 06:59:10;;;;;;;28.53;19.53;;;;;;;-4.05;70.82;93188.34;5010505;28;20396;-80
2022/01/20 07:01:36;;;;;;;29.00;20.57;;;;;;;-4.06;71.09;93138.31;5010035;28;20232;-82
2022/01/20 07:04:01;;;;;;;41.33;21.27;;;;;;;-3.77;70.71;93179.06;5007535;28;20203;-79
2022/01/20 07:06:27;;;;;;;36.07;25.33;;;;;;;-3.72;70.45;93187.75;5010225;28;20246;-78
2022/01/20 07:08:54;;;;;;;29.73;22.23;;;;;;;-3.61;70.37;93163.56;5010362;28;20217;-80
2022/01/20 07:11:19;;;;;;;32.23;21.20;;;;;;;-3.43;68.64;93177.50;4994044;28;20215;-78
2022/01/20 07:13:45;;;;;;;30.57;19.73;;;;;;;-3.65;68.63;93167.41;5010816;28;20198;-79
2022/01/20 07:16:10;;;;;;;30.50;20.57;;;;;;;-3.38;68.72;93175.16;5009258;28;20254;-74
2022/01/20 07:18:36;;;;;;;28.87;19.27;;;;;;;-3.53;68.66;93179.53;5024754;28;20223;-83
2022/01/20 07:21:01;;;;;;;29.13;18.80;;;;;;;-3.47;69.41;93198.44;5009545;28;20226;-82
2022/01/20 07:23:27;;;;;;;25.00;18.57;;;;;;;-3.08;67.18;93195.50;4993542;28;20187;-80
2022/01/20 07:25:52;;;;;;;30.17;21.13;;;;;;;-3.19;68.51;93178.88;5010483;28;20223;-80
2022/01/20 07:28:17;;;;;;;22.00;18.97;;;;;;;-2.90;66.99;93199.19;5009540;28;21733;-79
2022/01/20 07:30:43;;;;;;;26.47;19.30;;;;;;;-2.97;67.95;93183.00;5025831;28;20239;-84
2022/01/20 07:33:09;;;;;;;24.63;19.50;;;;;;;-2.73;69.41;93185.19;5010956;28;20217;-78
2022/01/20 07:35:35;;;;;;;23.23;18.93;;;;;;;-2.57;66.24;93186.69;5009434;28;20198;-79
2022/01/20 07:38:01;;;;;;;28.90;19.47;;;;;;;-2.92;67.66;93175.59;5007469;28;20203;-78
2022/01/20 07:40:27;;;;;;;30.70;19.37;;;;;;;-2.63;67.34;93205.31;4993065;28;20854;-78
2022/01/20 07:42:52;;;;;;;28.67;20.73;;;;;;;-2.80;66.13;93142.69;5009778;28;20263;-76
2022/01/20 07:45:19;;;;;;;25.40;18.97;;;;;;;-2.55;65.58;93177.84;5007399;28;20219;-78
2022/01/20 07:47:46;;;;;;;32.00;20.70;;;;;;;-2.31;65.49;93182.56;5009680;28;20231;-78
2022/01/20 07:50:11;;;;;;;27.20;18.90;;;;;;;-2.16;64.01;93175.53;5008904;28;20258;-76
2022/01/20 07:52:37;;;;;;;23.13;18.47;;;;;;;-2.16;63.75;93173.00;5007983;28;20215;-78
2022/01/20 07:55:03;;;;;;;28.90;17.77;;;;;;;-1.92;62.38;93190.44;5008927;28;20667;-77
2022/01/20 07:57:28;;;;;;;24.60;18.10;;;;;;;-1.87;61.50;93180.41;5007235;28;20945;-76
2022/01/20 07:59:54;;;;;;;27.63;19.77;;;;;;;-1.85;62.25;93203.25;5010644;28;20187;-76
2022/01/20 08:02:19;;;;;;;21.23;17.03;;;;;;;-1.85;61.44;93190.44;5010779;28;20291;-83
2022/01/20 08:04:45;;;;;;;22.50;17.83;;;;;;;-1.87;61.62;93202.66;5011961;28;20194;-82
2022/01/20 08:07:10;;;;;;;29.00;18.87;;;;;;;-1.88;60.95;93195.94;5010598;28;20310;-82
2022/01/20 08:09:36;;;;;;;31.37;17.23;;;;;;;-1.76;61.87;93215.69;5013512;28;20210;-82
2022/01/20 08:12:03;;;;;;;30.27;18.10;;;;;;;-1.79;61.73;93217.88;5011924;28;20243;-81
2022/01/20 08:14:29;;;;;;;24.20;17.40;;;;;;;-1.75;60.69;93155.88;5011849;28;20219;-82
2022/01/20 08:16:54;;;;;;;22.63;16.70;;;;;;;-1.66;61.31;93203.34;5010116;28;21723;-83
2022/01/20 08:19:20;;;;;;;25.07;16.87;;;;;;;-1.70;59.96;93181.66;5012237;28;20224;-83
2022/01/20 08:21:45;;;;;;;23.23;17.80;;;;;;;-1.38;60.09;93192.22;5012390;28;20223;-84
2022/01/20 08:24:11;;;;;;;21.87;16.53;;;;;;;-1.46;59.32;93189.84;5013947;28;20196;-83
2022/01/20 08:26:36;;;;;;;22.27;16.80;;;;;;;-1.33;59.66;93182.19;5011235;28;20259;-83
2022/01/20 08:29:02;;;;;;;21.33;14.63;;;;;;;-1.10;59.95;93213.38;5012233;28;20219;-83
2022/01/20 08:31:29;;;;;;;23.97;17.00;;;;;;;-1.23;59.40;93190.31;5010195;28;20227;-82
2022/01/20 08:33:55;;;;;;;30.70;18.23;;;;;;;-0.99;59.35;93203.34;5014399;28;20219;-88
2022/01/20 08:36:21;;;;;;;24.63;22.13;;;;;;;-1.24;58.94;93178.47;5013148;28;20227;-87
2022/01/20 08:38:46;;;;;;;23.10;16.50;;;;;;;-1.16;59.27;93176.53;5012197;28;20275;-86
2022/01/20 08:41:11;;;;;;;23.27;16.67;;;;;;;-0.91;58.80;93182.69;5012291;28;20235;-87
2022/01/20 08:43:40;;;;;;;21.87;16.33;;;;;;;-0.72;58.42;93197.28;5012343;28;20196;-83
2022/01/20 08:46:07;;;;;;;21.47;17.40;;;;;;;-0.84;58.16;93206.53;5013570;28;20277;-83
2022/01/20 08:48:34;;;;;;;31.93;18.53;;;;;;;-0.85;57.85;93174.22;5011647;28;20196;-84
2022/01/20 08:51:01;;;;;;;22.17;16.93;;;;;;;-0.78;58.06;93187.03;5010832;28;20315;-83
2022/01/20 08:53:27;;;;;;;23.93;17.43;;;;;;;-0.54;57.99;93194.13;5011184;28;20239;-83
2022/01/20 08:55:53;;;;;;;22.43;17.43;;;;;;;-0.28;57.20;93189.78;5011077;28;20710;-81
2022/01/20 08:58:18;;;;;;;26.47;18.97;;;;;;;-0.44;56.12;93164.56;5011882;28;20198;-81
2022/01/20 09:00:44;;;;;;;23.53;16.93;;;;;;;-0.59;56.03;93156.25;5010367;28;21009;-81
2022/01/20 09:03:09;;;;;;;29.50;18.80;;;;;;;-0.40;55.43;93180.31;5012342;28;20221;-82
2022/01/20 09:05:35;;;;;;;22.47;17.27;;;;;;;-0.34;56.20;93182.09;5010490;28;20235;-84
2022/01/20 09:08:02;;;;;;;25.20;18.27;;;;;;;-0.20;56.66;93196.47;5011502;28;20214;-86
2022/01/20 09:10:29;;;;;;;22.73;16.70;;;;;;;-0.02;54.36;93187.16;5011223;28;20191;-79
2022/01/20 09:15:39;;;;;;;26.70;17.77;;;;;;;-0.02;54.00;93182.03;5011339;28;20234;-78
2022/01/20 09:18:08;;;;;;;28.97;18.33;;;;;;;-0.05;54.68;93173.97;5011938;28;20258;-81
2022/01/20 09:20:34;;;;;;;27.30;19.63;;;;;;;0.22;54.24;93198.56;5012405;28;20190;-78
2022/01/20 09:23:00;;;;;;;26.53;18.97;;;;;;;-0.01;53.71;93170.00;5011480;28;20251;-80
2022/01/20 09:25:28;;;;;;;22.33;17.93;;;;;;;0.16;53.53;93196.81;5012660;28;20202;-83
2022/01/20 09:27:55;;;;;;;25.13;17.57;;;;;;;0.24;53.51;93193.22;5011760;28;20215;-82
2022/01/20 09:30:22;;;;;;;31.53;18.40;;;;;;;0.11;53.59;93155.53;5012860;28;20184;-82
2022/01/20 09:32:59;;;;;;;29.80;19.13;;;;;;;0.75;52.80;93179.41;5025428;28;20195;-82
2022/01/20 09:35:31;;;;;;;29.00;18.07;;;;;;;0.88;52.57;93171.63;5010087;28;20191;-79
2022/01/20 09:37:57;;;;;;;29.03;20.13;;;;;;;0.92;52.05;93174.59;5011308;28;20222;-83
2022/01/20 09:40:22;;;;;;;27.70;19.47;;;;;;;0.98;51.87;93163.47;5011675;28;20263;-84
2022/01/20 09:42:48;;;;;;;30.43;20.13;;;;;;;0.93;51.75;93171.81;5011409;28;20222;-84
2022/01/20 09:45:14;;;;;;;34.00;19.90;;;;;;;0.89;52.35;93162.91;5012036;28;20242;-85
2022/01/20 09:47:45;;;;;;;26.33;20.03;;;;;;;1.02;52.55;93152.56;5011341;28;21019;-85
2022/01/20 09:50:15;;;;;;;35.27;20.93;;;;;;;1.54;50.96;93165.03;5015328;28;20235;-83
2022/01/20 09:52:41;;;;;;;26.90;19.40;;;;;;;1.45;49.66;93142.34;5012004;28;20283;-84
2022/01/20 09:55:07;;;;;;;31.70;19.93;;;;;;;1.52;49.96;93136.19;5011636;28;20204;-84
2022/01/20 09:57:33;;;;;;;27.90;20.40;;;;;;;1.33;52.01;93090.03;5011190;28;20223;-78
2022/01/20 10:00:00;;;;;;;31.80;21.47;;;;;;;1.67;49.93;93128.91;5012401;28;20198;-83
2022/01/20 10:02:25;;;;;;;27.97;21.57;;;;;;;1.82;50.33;93130.38;5011757;28;20215;-83
2022/01/20 10:04:52;;;;;;;35.57;23.43;;;;;;;1.69;49.19;93120.97;5011738;28;20255;-83
2022/01/20 10:07:18;;;;;;;39.30;21.60;;;;;;;1.78;49.06;93119.69;5024769;28;20282;-82
2022/01/20 10:09:47;;;;;;;32.93;20.70;;;;;;;1.92;52.58;93117.78;5011808;28;20203;-78
2022/01/20 10:12:18;;;;;;;33.13;19.83;;;;;;;2.50;50.59;93103.44;5011319;28;20220;-86
2022/01/20 10:14:45;;;;;;;33.83;21.27;;;;;;;2.25;51.24;93113.84;5013734;28;20259;-87
2022/01/20 10:17:15;;;;;;;32.83;20.30;;;;;;;2.45;48.38;93111.03;5011307;28;20238;-86
2022/01/20 10:19:41;;;;;;;29.60;20.07;;;;;;;2.20;47.80;93064.78;5010904;28;20180;-86
2022/01/20 10:22:14;;;;;;;25.53;19.23;;;;;;;2.38;48.52;93102.63;5011003;28;20262;-87
2022/01/20 10:24:40;;;;;;;30.10;18.93;;;;;;;2.03;49.94;93042.41;5010611;28;20187;-85
2022/01/20 10:27:13;;;;;;;32.03;20.53;;;;;;;2.62;47.02;93081.09;5010343;28;20234;-85
2022/01/20 10:29:39;;;;;;;28.60;20.33;;;;;;;2.73;47.67;93073.41;5011858;28;20269;-86
2022/01/20 10:32:05;;;;;;;30.13;20.53;;;;;;;2.71;48.10;93082.34;5009464;28;20247;-83
2022/01/20 10:34:35;;;;;;;33.47;21.80;;;;;;;2.59;48.33;93086.69;5010417;28;20200;-86
2022/01/20 10:37:17;;;;;;;28.47;21.77;;;;;;;2.91;48.00;93098.34;5008906;28;20247;-87
2022/01/20 10:39:47;;;;;;;34.73;20.83;;;;;;;2.99;48.03;93087.69;5009842;28;20188;-85
2022/01/20 10:42:17;;;;;;;36.93;22.80;;;;;;;2.99;47.55;93077.38;5026799;28;20230;-90
2022/01/20 10:44:44;;;;;;;29.27;22.00;;;;;;;3.15;47.33;93063.84;5010535;28;20202;-82
2022/01/20 10:47:15;;;;;;;35.17;21.27;;;;;;;3.11;47.32;93066.09;5009715;28;20534;-83
2022/01/20 10:49:42;;;;;;;31.70;21.30;;;;;;;3.13;46.21;93033.13;5009404;28;20226;-83
2022/01/20 10:52:11;;;;;;;31.73;19.63;;;;;;;3.34;46.23;93065.34;5008782;28;20231;-81
2022/01/20 10:54:45;;;;;;;27.93;19.77;;;;;;;2.96;49.13;93005.63;5010213;28;20218;-82
2022/01/20 10:57:12;;;;;;;30.93;20.13;;;;;;;3.31;46.35;93056.22;5007462;28;20235;-81
2022/01/20 10:59:52;;;;;;;30.63;20.37;;;;;;;3.39;45.02;93036.28;5010374;28;20210;-80
2022/01/20 11:02:21;;;;;;;22.27;19.07;;;;;;;3.43;44.61;93033.03;5005093;28;20219;-81
2022/01/20 11:04:48;;;;;;;27.93;18.80;;;;;;;3.72;44.04;93047.59;5007928;28;20198;-81
2022/01/20 11:07:14;;;;;;;27.03;18.20;;;;;;;3.64;44.18;93050.53;5008824;28;20231;-87
2022/01/20 11:09:45;;;;;;;33.97;19.20;;;;;;;3.66;45.21;93045.91;5009625;28;20238;-82
2022/01/20 11:12:14;;;;;;;26.67;20.47;;;;;;;3.51;44.38;93035.28;5009281;28;20231;-78
2022/01/20 11:14:41;;;;;;;31.43;20.57;;;;;;;3.81;44.79;93041.09;5008957;28;20255;-86
2022/01/20 11:17:07;;;;;;;28.13;17.90;;;;;;;3.63;45.29;93027.53;5010309;28;20263;-79
2022/01/20 11:19:37;;;;;;;27.47;18.60;;;;;;;3.60;47.85;93000.34;5009534;28;20204;-80
2022/01/20 11:22:08;;;;;;;33.03;19.17;;;;;;;3.77;45.01;93029.63;5009332;28;20223;-76
2022/01/20 11:24:33;;;;;;;35.23;19.83;;;;;;;3.88;44.02;93012.53;5008506;28;20263;-81
2022/01/20 11:27:01;;;;;;;30.83;20.67;;;;;;;3.87;43.77;92973.03;5009960;28;20261;-84
2022/01/20 11:29:43;;;;;;;28.63;18.07;;;;;;;4.14;42.68;93010.22;5008754;28;20198;-82
2022/01/20 11:32:24;;;;;;;31.63;18.13;;;;;;;3.86;43.41;92986.19;5007722;28;20258;-82
2022/01/20 11:34:55;;;;;;;29.83;19.17;;;;;;;4.00;42.56;93008.91;5009895;28;20187;-81
2022/01/20 11:37:23;;;;;;;29.70;19.70;;;;;;;4.00;42.84;93003.00;5014004;28;20774;-82
2022/01/20 11:39:52;;;;;;;31.10;19.07;;;;;;;4.31;43.49;93012.88;5014526;28;20198;-81
2022/01/20 11:42:25;;;;;;;27.00;18.80;;;;;;;4.16;42.93;92977.22;5013461;28;20211;-81
2022/01/20 11:44:52;;;;;;;27.23;19.17;;;;;;;4.39;40.58;92969.34;5014006;28;20187;-80
2022/01/20 11:47:18;;;;;;;26.37;18.27;;;;;;;4.50;41.29;92991.78;5012029;28;20234;-80
2022/01/20 11:49:45;;;;;;;21.53;15.37;;;;;;;4.71;38.12;93001.47;5014425;28;20188;-80
2022/01/20 11:52:23;;;;;;;25.67;16.17;;;;;;;4.82;39.48;92990.25;5012460;28;20214;-80
2022/01/20 11:54:48;;;;;;;23.00;16.30;;;;;;;5.14;39.69;92990.50;5015079;28;20184;-82
2022/01/20 11:57:25;;;;;;;22.17;16.73;;;;;;;5.12;38.56;92977.00;5012326;28;20314;-81
2022/01/20 11:59:56;;;;;;;17.90;13.37;;;;;;;5.27;35.84;92968.69;5012338;28;20190;-80
2022/01/20 12:02:35;;;;;;;18.20;13.80;;;;;;;5.61;35.93;92963.22;5013039;28;20219;-81
2022/01/20 12:05:02;;;;;;;15.87;12.50;;;;;;;5.57;34.10;92938.03;4996009;28;20214;-82
2022/01/20 12:07:33;;;;;;;14.17;12.97;;;;;;;5.83;32.97;92958.06;5012480;28;20215;-80
2022/01/20 12:10:11;;;;;;;15.20;13.70;;;;;;;5.78;33.71;92945.03;5013423;28;20192;-80
2022/01/20 12:12:38;;;;;;;13.80;12.27;;;;;;;5.92;33.62;92954.03;5011951;28;20210;-81
2022/01/20 12:15:22;;;;;;;13.17;11.70;;;;;;;5.81;33.78;92941.97;5015772;28;20188;-79
2022/01/20 12:17:53;;;;;;;13.97;12.33;;;;;;;5.78;33.71;92945.81;5011833;28;20220;-81
2022/01/20 12:20:19;;;;;;;13.03;11.50;;;;;;;5.83;33.82;92930.38;5012834;28;20207;-80
2022/01/20 12:22:46;;;;;;;14.07;11.03;;;;;;;5.97;34.05;92946.34;5012131;28;20215;-81
2022/01/20 12:25:21;;;;;;;12.87;11.87;;;;;;;5.97;33.82;92967.84;5013005;28;20204;-80
2022/01/20 12:27:48;;;;;;;16.50;12.40;;;;;;;5.95;34.21;92945.78;5013759;28;20233;-83
2022/01/20 12:30:24;;;;;;;13.17;11.57;;;;;;;5.98;34.38;92958.25;5011758;28;20195;-80
2022/01/20 12:33:13;;;;;;;14.13;10.83;;;;;;;5.99;34.10;92947.63;5012107;28;20226;-80